sensor_id;sensor_type;location;lat;lon;timestamp;temperature;humidity
66596;SHT31;59017;49.252;18.838;2022-09-09T00:04:27;23.51;62.73
66596;SHT31;59017;49.252;18.838;2022-09-09T00:07:33;23.54;62.75
66596;SHT31;59017;49.252;18.838;2022-09-09T00:16:09;23.50;62.93
66596;SHT31;59017;49.252;18.838;2022-09-09T00:18:49;23.49;62.79
66596;SHT31;59017;49.252;18.838;2022-09-09T00:21:17;23.57;62.57
66596;SHT31;59017;49.252;18.838;2022-09-09T00:23:51;23.58;62.54
66596;SHT31;59017;49.252;18.838;2022-09-09T00:26:42;23.53;62.64
66596;SHT31;59017;49.252;18.838;2022-09-09T00:31:56;23.53;62.58
66596;SHT31;59017;49.252;18.838;2022-09-09T00:34:26;23.54;62.58
66596;SHT31;59017;49.252;18.838;2022-09-09T00:36:53;23.61;62.35
66596;SHT31;59017;49.252;18.838;2022-09-09T00:42:30;23.57;62.79
66596;SHT31;59017;49.252;18.838;2022-09-09T00:48:14;23.42;62.89
66596;SHT31;59017;49.252;18.838;2022-09-09T00:58:35;23.40;62.64
66596;SHT31;59017;49.252;18.838;2022-09-09T01:01:12;23.42;62.36
66596;SHT31;59017;49.252;18.838;2022-09-09T01:03:54;23.42;62.57
66596;SHT31;59017;49.252;18.838;2022-09-09T01:12:07;23.50;61.99
66596;SHT31;59017;49.252;18.838;2022-09-09T01:17:26;23.42;62.44
66596;SHT31;59017;49.252;18.838;2022-09-09T01:20:02;23.40;62.16
66596;SHT31;59017;49.252;18.838;2022-09-09T01:22:37;23.42;62.30
66596;SHT31;59017;49.252;18.838;2022-09-09T01:27:53;23.40;62.46
66596;SHT31;59017;49.252;18.838;2022-09-09T01:30:20;23.40;62.19
66596;SHT31;59017;49.252;18.838;2022-09-09T01:32:49;23.36;62.39
66596;SHT31;59017;49.252;18.838;2022-09-09T01:38:14;23.28;62.65
66596;SHT31;59017;49.252;18.838;2022-09-09T01:40:40;23.36;62.39
66596;SHT31;59017;49.252;18.838;2022-09-09T01:43:06;23.40;62.35
66596;SHT31;59017;49.252;18.838;2022-09-09T01:45:33;23.33;62.50
66596;SHT31;59017;49.252;18.838;2022-09-09T01:47:59;23.36;62.47
66596;SHT31;59017;49.252;18.838;2022-09-09T01:50:25;23.33;62.37
66596;SHT31;59017;49.252;18.838;2022-09-09T01:52:55;23.26;62.36
66596;SHT31;59017;49.252;18.838;2022-09-09T01:55:30;23.15;62.35
66596;SHT31;59017;49.252;18.838;2022-09-09T01:58:09;23.06;62.52
66596;SHT31;59017;49.252;18.838;2022-09-09T02:00:41;23.20;62.17
66596;SHT31;59017;49.252;18.838;2022-09-09T02:06:27;23.15;62.22
66596;SHT31;59017;49.252;18.838;2022-09-09T02:08:56;23.20;62.02
66596;SHT31;59017;49.252;18.838;2022-09-09T02:11:27;23.19;62.04
66596;SHT31;59017;49.252;18.838;2022-09-09T02:13:57;23.23;61.92
66596;SHT31;59017;49.252;18.838;2022-09-09T02:17:18;23.27;61.91
66596;SHT31;59017;49.252;18.838;2022-09-09T02:19:23;23.20;62.02
66596;SHT31;59017;49.252;18.838;2022-09-09T02:21:53;23.26;61.67
66596;SHT31;59017;49.252;18.838;2022-09-09T02:24:20;23.28;61.75
66596;SHT31;59017;49.252;18.838;2022-09-09T02:26:49;23.30;61.76
66596;SHT31;59017;49.252;18.838;2022-09-09T02:29:29;23.34;61.74
66596;SHT31;59017;49.252;18.838;2022-09-09T02:31:59;23.30;61.84
66596;SHT31;59017;49.252;18.838;2022-09-09T02:34:28;23.34;61.76
66596;SHT31;59017;49.252;18.838;2022-09-09T02:36:55;23.36;61.79
66596;SHT31;59017;49.252;18.838;2022-09-09T02:39:22;23.34;61.65
66596;SHT31;59017;49.252;18.838;2022-09-09T02:41:47;23.37;61.74
66596;SHT31;59017;49.252;18.838;2022-09-09T02:44:15;23.36;61.60
66596;SHT31;59017;49.252;18.838;2022-09-09T02:46:51;23.27;61.88
66596;SHT31;59017;49.252;18.838;2022-09-09T02:52:01;23.09;61.97
66596;SHT31;59017;49.252;18.838;2022-09-09T02:54:32;23.03;61.97
66596;SHT31;59017;49.252;18.838;2022-09-09T02:57:11;23.05;61.93
66596;SHT31;59017;49.252;18.838;2022-09-09T02:59:38;23.05;61.78
66596;SHT31;59017;49.252;18.838;2022-09-09T03:02:04;23.03;61.85
66596;SHT31;59017;49.252;18.838;2022-09-09T03:04:30;23.12;61.53
66596;SHT31;59017;49.252;18.838;2022-09-09T03:06:57;23.19;61.58
66596;SHT31;59017;49.252;18.838;2022-09-09T03:09:22;23.20;61.58
66596;SHT31;59017;49.252;18.838;2022-09-09T03:11:48;23.19;61.63
66596;SHT31;59017;49.252;18.838;2022-09-09T03:14:15;23.26;61.70
66596;SHT31;59017;49.252;18.838;2022-09-09T03:16:40;23.26;61.69
66596;SHT31;59017;49.252;18.838;2022-09-09T03:19:08;23.27;61.53
66596;SHT31;59017;49.252;18.838;2022-09-09T03:21:33;23.24;61.59
66596;SHT31;59017;49.252;18.838;2022-09-09T03:23:59;23.13;61.69
66596;SHT31;59017;49.252;18.838;2022-09-09T03:26:25;23.19;61.49
66596;SHT31;59017;49.252;18.838;2022-09-09T03:28:50;23.19;61.60
66596;SHT31;59017;49.252;18.838;2022-09-09T03:31:16;23.16;61.60
66596;SHT31;59017;49.252;18.838;2022-09-09T03:33:42;23.24;61.40
66596;SHT31;59017;49.252;18.838;2022-09-09T03:36:07;23.31;61.42
66596;SHT31;59017;49.252;18.838;2022-09-09T03:38:35;23.34;61.30
66596;SHT31;59017;49.252;18.838;2022-09-09T03:41:01;23.33;61.23
66596;SHT31;59017;49.252;18.838;2022-09-09T03:43:27;23.33;61.31
66596;SHT31;59017;49.252;18.838;2022-09-09T03:45:54;23.20;61.55
66596;SHT31;59017;49.252;18.838;2022-09-09T03:48:22;23.15;61.65
66596;SHT31;59017;49.252;18.838;2022-09-09T03:50:49;23.07;61.79
66596;SHT31;59017;49.252;18.838;2022-09-09T03:53:19;23.09;61.69
66596;SHT31;59017;49.252;18.838;2022-09-09T03:55:50;23.15;61.59
66596;SHT31;59017;49.252;18.838;2022-09-09T03:58:18;23.16;61.48
66596;SHT31;59017;49.252;18.838;2022-09-09T04:01:03;23.22;61.43
66596;SHT31;59017;49.252;18.838;2022-09-09T04:03:29;23.27;61.43
66596;SHT31;59017;49.252;18.838;2022-09-09T04:05:56;23.20;61.48
66596;SHT31;59017;49.252;18.838;2022-09-09T04:08:22;23.12;61.37
66596;SHT31;59017;49.252;18.838;2022-09-09T04:10:48;23.02;61.48
66596;SHT31;59017;49.252;18.838;2022-09-09T04:13:15;23.05;61.22
66596;SHT31;59017;49.252;18.838;2022-09-09T04:15:43;23.07;61.03
66596;SHT31;59017;49.252;18.838;2022-09-09T04:18:09;23.07;61.12
66596;SHT31;59017;49.252;18.838;2022-09-09T04:20:37;23.13;60.84
66596;SHT31;59017;49.252;18.838;2022-09-09T04:23:04;23.12;60.98
66596;SHT31;59017;49.252;18.838;2022-09-09T04:25:30;23.15;61.06
66596;SHT31;59017;49.252;18.838;2022-09-09T04:27:57;23.15;60.99
66596;SHT31;59017;49.252;18.838;2022-09-09T04:30:24;23.20;61.03
66596;SHT31;59017;49.252;18.838;2022-09-09T04:32:50;23.17;60.87
66596;SHT31;59017;49.252;18.838;2022-09-09T04:35:19;23.16;60.75
66596;SHT31;59017;49.252;18.838;2022-09-09T04:37:45;23.16;60.79
66596;SHT31;59017;49.252;18.838;2022-09-09T04:40:12;23.16;60.56
66596;SHT31;59017;49.252;18.838;2022-09-09T04:42:38;23.13;60.83
66596;SHT31;59017;49.252;18.838;2022-09-09T04:45:05;23.13;60.77
66596;SHT31;59017;49.252;18.838;2022-09-09T04:47:32;23.12;60.54
66596;SHT31;59017;49.252;18.838;2022-09-09T04:49:57;23.10;60.58
66596;SHT31;59017;49.252;18.838;2022-09-09T04:52:23;23.10;60.65
66596;SHT31;59017;49.252;18.838;2022-09-09T04:54:48;23.12;61.41
66596;SHT31;59017;49.252;18.838;2022-09-09T04:57:14;23.13;61.12
66596;SHT31;59017;49.252;18.838;2022-09-09T04:59:39;23.07;61.22
66596;SHT31;59017;49.252;18.838;2022-09-09T05:02:05;23.10;61.62
66596;SHT31;59017;49.252;18.838;2022-09-09T05:04:31;23.12;61.31
66596;SHT31;59017;49.252;18.838;2022-09-09T05:06:58;23.15;61.54
66596;SHT31;59017;49.252;18.838;2022-09-09T05:09:24;23.13;61.27
66596;SHT31;59017;49.252;18.838;2022-09-09T05:11:49;23.03;61.54
66596;SHT31;59017;49.252;18.838;2022-09-09T05:14:15;22.96;61.58
66596;SHT31;59017;49.252;18.838;2022-09-09T05:16:41;23.00;61.41
66596;SHT31;59017;49.252;18.838;2022-09-09T05:19:09;23.05;61.22
66596;SHT31;59017;49.252;18.838;2022-09-09T05:21:34;23.02;61.14
66596;SHT31;59017;49.252;18.838;2022-09-09T05:24:00;23.02;61.11
66596;SHT31;59017;49.252;18.838;2022-09-09T05:26:26;23.02;60.97
66596;SHT31;59017;49.252;18.838;2022-09-09T05:28:51;22.99;60.89
66596;SHT31;59017;49.252;18.838;2022-09-09T05:31:18;23.05;60.70
66596;SHT31;59017;49.252;18.838;2022-09-09T05:33:45;23.07;60.58
66596;SHT31;59017;49.252;18.838;2022-09-09T05:36:16;23.09;60.41
66596;SHT31;59017;49.252;18.838;2022-09-09T05:38:42;23.12;60.19
66596;SHT31;59017;49.252;18.838;2022-09-09T05:41:09;23.15;60.13
66596;SHT31;59017;49.252;18.838;2022-09-09T05:43:36;23.10;60.26
66596;SHT31;59017;49.252;18.838;2022-09-09T05:46:14;23.13;60.05
66596;SHT31;59017;49.252;18.838;2022-09-09T05:48:42;23.17;59.62
66596;SHT31;59017;49.252;18.838;2022-09-09T05:51:12;23.16;59.90
66596;SHT31;59017;49.252;18.838;2022-09-09T05:53:41;23.02;60.15
66596;SHT31;59017;49.252;18.838;2022-09-09T05:56:09;22.99;60.23
66596;SHT31;59017;49.252;18.838;2022-09-09T05:58:40;23.03;60.28
66596;SHT31;59017;49.252;18.838;2022-09-09T06:03:36;22.88;60.06
66596;SHT31;59017;49.252;18.838;2022-09-09T06:06:04;22.94;59.90
66596;SHT31;59017;49.252;18.838;2022-09-09T06:08:31;22.81;60.32
66596;SHT31;59017;49.252;18.838;2022-09-09T06:11:05;22.84;60.25
66596;SHT31;59017;49.252;18.838;2022-09-09T06:13:31;22.92;59.86
66596;SHT31;59017;49.252;18.838;2022-09-09T06:15:56;22.91;59.92
66596;SHT31;59017;49.252;18.838;2022-09-09T06:18:24;23.03;59.58
66596;SHT31;59017;49.252;18.838;2022-09-09T06:20:57;22.95;59.83
66596;SHT31;59017;49.252;18.838;2022-09-09T06:23:23;23.00;59.74
66596;SHT31;59017;49.252;18.838;2022-09-09T06:25:49;23.06;59.70
66596;SHT31;59017;49.252;18.838;2022-09-09T06:28:16;23.09;59.53
66596;SHT31;59017;49.252;18.838;2022-09-09T06:30:42;23.07;59.49
66596;SHT31;59017;49.252;18.838;2022-09-09T06:33:08;23.07;59.52
66596;SHT31;59017;49.252;18.838;2022-09-09T06:35:34;23.02;59.60
66596;SHT31;59017;49.252;18.838;2022-09-09T06:38:00;23.06;59.51
66596;SHT31;59017;49.252;18.838;2022-09-09T06:40:26;23.05;59.53
66596;SHT31;59017;49.252;18.838;2022-09-09T06:42:51;23.15;59.11
66596;SHT31;59017;49.252;18.838;2022-09-09T06:45:17;23.15;59.22
66596;SHT31;59017;49.252;18.838;2022-09-09T06:47:43;23.05;59.70
66596;SHT31;59017;49.252;18.838;2022-09-09T06:50:09;22.89;59.95
66596;SHT31;59017;49.252;18.838;2022-09-09T06:52:36;23.10;59.43
66596;SHT31;59017;49.252;18.838;2022-09-09T06:55:02;23.00;59.60
66596;SHT31;59017;49.252;18.838;2022-09-09T06:57:28;23.00;59.70
66596;SHT31;59017;49.252;18.838;2022-09-09T06:59:53;23.10;59.37
66596;SHT31;59017;49.252;18.838;2022-09-09T07:02:19;23.05;59.53
66596;SHT31;59017;49.252;18.838;2022-09-09T07:04:45;23.12;59.11
66596;SHT31;59017;49.252;18.838;2022-09-09T07:07:10;23.17;59.06
66596;SHT31;59017;49.252;18.838;2022-09-09T07:09:38;23.16;59.17
66596;SHT31;59017;49.252;18.838;2022-09-09T07:12:05;23.15;59.32
66596;SHT31;59017;49.252;18.838;2022-09-09T07:14:31;23.19;59.11
66596;SHT31;59017;49.252;18.838;2022-09-09T07:16:58;23.23;58.97
66596;SHT31;59017;49.252;18.838;2022-09-09T07:19:23;23.16;59.04
66596;SHT31;59017;49.252;18.838;2022-09-09T07:21:48;23.24;58.94
66596;SHT31;59017;49.252;18.838;2022-09-09T07:24:14;23.17;59.22
66596;SHT31;59017;49.252;18.838;2022-09-09T07:26:40;23.24;59.16
66596;SHT31;59017;49.252;18.838;2022-09-09T07:29:07;23.30;58.89
66596;SHT31;59017;49.252;18.838;2022-09-09T07:31:35;23.26;58.91
66596;SHT31;59017;49.252;18.838;2022-09-09T07:34:02;23.39;58.67
66596;SHT31;59017;49.252;18.838;2022-09-09T07:36:36;23.24;58.80
66596;SHT31;59017;49.252;18.838;2022-09-09T07:39:11;23.13;58.89
66596;SHT31;59017;49.252;18.838;2022-09-09T07:41:43;23.16;58.69
66596;SHT31;59017;49.252;18.838;2022-09-09T07:44:12;23.17;58.93
66596;SHT31;59017;49.252;18.838;2022-09-09T07:46:39;23.27;58.61
66596;SHT31;59017;49.252;18.838;2022-09-09T07:49:05;23.30;58.78
66596;SHT31;59017;49.252;18.838;2022-09-09T07:51:35;23.33;58.56
66596;SHT31;59017;49.252;18.838;2022-09-09T07:54:05;23.27;58.63
66596;SHT31;59017;49.252;18.838;2022-09-09T07:56:32;23.30;58.40
66596;SHT31;59017;49.252;18.838;2022-09-09T07:58:58;23.33;58.40
66596;SHT31;59017;49.252;18.838;2022-09-09T08:01:26;23.39;58.26
66596;SHT31;59017;49.252;18.838;2022-09-09T08:03:58;23.36;58.39
66596;SHT31;59017;49.252;18.838;2022-09-09T08:06:29;23.19;58.49
66596;SHT31;59017;49.252;18.838;2022-09-09T08:08:55;23.15;58.67
66596;SHT31;59017;49.252;18.838;2022-09-09T08:11:23;23.15;58.56
66596;SHT31;59017;49.252;18.838;2022-09-09T08:13:49;23.12;58.37
66596;SHT31;59017;49.252;18.838;2022-09-09T08:16:18;23.16;58.45
66596;SHT31;59017;49.252;18.838;2022-09-09T08:18:46;23.07;58.49
66596;SHT31;59017;49.252;18.838;2022-09-09T08:21:15;23.05;58.42
66596;SHT31;59017;49.252;18.838;2022-09-09T08:23:43;23.00;58.32
66596;SHT31;59017;49.252;18.838;2022-09-09T08:26:19;22.98;58.28
66596;SHT31;59017;49.252;18.838;2022-09-09T08:28:49;23.02;58.11
66596;SHT31;59017;49.252;18.838;2022-09-09T08:31:22;23.19;57.71
66596;SHT31;59017;49.252;18.838;2022-09-09T08:33:48;23.30;57.54
66596;SHT31;59017;49.252;18.838;2022-09-09T08:36:16;23.33;57.74
66596;SHT31;59017;49.252;18.838;2022-09-09T08:38:43;23.39;57.60
66596;SHT31;59017;49.252;18.838;2022-09-09T08:55:31;23.22;57.08
66596;SHT31;59017;49.252;18.838;2022-09-09T08:58:09;23.20;56.96
66596;SHT31;59017;49.252;18.838;2022-09-09T09:06:39;23.24;56.96
66596;SHT31;59017;49.252;18.838;2022-09-09T09:11:46;23.42;56.67
66596;SHT31;59017;49.252;18.838;2022-09-09T09:14:22;23.44;56.64
66596;SHT31;59017;49.252;18.838;2022-09-09T09:17:04;23.46;56.67
66596;SHT31;59017;49.252;18.838;2022-09-09T09:19:33;23.39;56.60
66596;SHT31;59017;49.252;18.838;2022-09-09T09:24:55;23.49;56.40
66596;SHT31;59017;49.252;18.838;2022-09-09T09:27:40;23.53;56.30
66596;SHT31;59017;49.252;18.838;2022-09-09T09:30:14;23.51;56.51
66596;SHT31;59017;49.252;18.838;2022-09-09T09:32:44;23.53;56.21
66596;SHT31;59017;49.252;18.838;2022-09-09T09:35:13;23.57;56.13
66596;SHT31;59017;49.252;18.838;2022-09-09T09:37:40;23.54;55.97
66596;SHT31;59017;49.252;18.838;2022-09-09T09:40:16;23.60;55.84
66596;SHT31;59017;49.252;18.838;2022-09-09T09:43:16;23.55;55.56
66596;SHT31;59017;49.252;18.838;2022-09-09T09:45:45;23.61;55.46
66596;SHT31;59017;49.252;18.838;2022-09-09T09:48:12;23.68;55.37
66596;SHT31;59017;49.252;18.838;2022-09-09T09:53:30;23.58;55.30
66596;SHT31;59017;49.252;18.838;2022-09-09T09:56:13;23.58;55.03
66596;SHT31;59017;49.252;18.838;2022-09-09T10:04:00;23.64;54.34
66596;SHT31;59017;49.252;18.838;2022-09-09T10:06:37;23.70;54.53
66596;SHT31;59017;49.252;18.838;2022-09-09T10:09:17;23.73;54.51
66596;SHT31;59017;49.252;18.838;2022-09-09T10:11:51;23.73;54.70
66596;SHT31;59017;49.252;18.838;2022-09-09T10:14:19;23.77;54.43
66596;SHT31;59017;49.252;18.838;2022-09-09T10:19:33;23.70;53.84
66596;SHT31;59017;49.252;18.838;2022-09-09T10:27:46;23.60;51.85
66596;SHT31;59017;49.252;18.838;2022-09-09T10:30:18;23.61;51.89
66596;SHT31;59017;49.252;18.838;2022-09-09T10:33:21;23.64;51.73
66596;SHT31;59017;49.252;18.838;2022-09-09T10:36:13;23.63;50.70
66596;SHT31;59017;49.252;18.838;2022-09-09T10:38:41;23.65;50.38
66596;SHT31;59017;49.252;18.838;2022-09-09T10:41:39;23.58;49.13
66596;SHT31;59017;49.252;18.838;2022-09-09T10:44:33;23.65;48.12
66596;SHT31;59017;49.252;18.838;2022-09-09T10:55:16;23.75;49.38
66596;SHT31;59017;49.252;18.838;2022-09-09T11:00:38;23.65;47.47
66596;SHT31;59017;49.252;18.838;2022-09-09T11:03:05;23.67;47.37
66596;SHT31;59017;49.252;18.838;2022-09-09T11:08:22;23.57;47.93
66596;SHT31;59017;49.252;18.838;2022-09-09T11:11:04;23.57;47.34
66596;SHT31;59017;49.252;18.838;2022-09-09T11:19:52;23.71;47.54
66596;SHT31;59017;49.252;18.838;2022-09-09T11:21:55;23.78;48.42
66596;SHT31;59017;49.252;18.838;2022-09-09T11:24:26;23.81;48.66
66596;SHT31;59017;49.252;18.838;2022-09-09T11:40:58;23.81;47.44
66596;SHT31;59017;49.252;18.838;2022-09-09T11:43:44;23.82;47.72
66596;SHT31;59017;49.252;18.838;2022-09-09T11:46:13;23.86;46.90
66596;SHT31;59017;49.252;18.838;2022-09-09T11:48:41;23.79;47.14
66596;SHT31;59017;49.252;18.838;2022-09-09T11:53:52;23.81;47.32
66596;SHT31;59017;49.252;18.838;2022-09-09T11:59:06;23.91;45.73
66596;SHT31;59017;49.252;18.838;2022-09-09T12:01:44;23.85;45.92
66596;SHT31;59017;49.252;18.838;2022-09-09T12:04:17;23.79;46.03
66596;SHT31;59017;49.252;18.838;2022-09-09T12:12:27;23.81;46.05
66596;SHT31;59017;49.252;18.838;2022-09-09T12:17:48;23.81;45.61
66596;SHT31;59017;49.252;18.838;2022-09-09T12:20:20;23.78;44.75
66596;SHT31;59017;49.252;18.838;2022-09-09T12:28:09;23.78;45.23
66596;SHT31;59017;49.252;18.838;2022-09-09T12:33:37;23.75;44.88
66596;SHT31;59017;49.252;18.838;2022-09-09T12:36:09;23.74;44.92
66596;SHT31;59017;49.252;18.838;2022-09-09T12:38:40;23.81;44.59
66596;SHT31;59017;49.252;18.838;2022-09-09T12:41:06;23.74;44.64
66596;SHT31;59017;49.252;18.838;2022-09-09T12:43:31;23.77;44.54
66596;SHT31;59017;49.252;18.838;2022-09-09T12:46:03;23.78;44.91
66596;SHT31;59017;49.252;18.838;2022-09-09T12:48:39;23.79;45.04
66596;SHT31;59017;49.252;18.838;2022-09-09T12:51:24;23.84;44.49
66596;SHT31;59017;49.252;18.838;2022-09-09T12:53:51;23.82;44.73
66596;SHT31;59017;49.252;18.838;2022-09-09T12:56:22;23.77;44.74
66596;SHT31;59017;49.252;18.838;2022-09-09T12:58:48;23.81;44.96
66596;SHT31;59017;49.252;18.838;2022-09-09T13:01:34;23.84;45.04
66596;SHT31;59017;49.252;18.838;2022-09-09T13:04:00;23.81;44.70
66596;SHT31;59017;49.252;18.838;2022-09-09T13:06:27;23.79;44.80
66596;SHT31;59017;49.252;18.838;2022-09-09T13:08:55;23.79;44.78
66596;SHT31;59017;49.252;18.838;2022-09-09T13:13:55;23.82;44.20
66596;SHT31;59017;49.252;18.838;2022-09-09T13:16:26;23.81;44.30
66596;SHT31;59017;49.252;18.838;2022-09-09T13:18:56;23.91;43.70
66596;SHT31;59017;49.252;18.838;2022-09-09T13:21:31;23.92;44.22
66596;SHT31;59017;49.252;18.838;2022-09-09T13:23:57;23.92;43.43
66596;SHT31;59017;49.252;18.838;2022-09-09T13:26:28;23.98;43.51
66596;SHT31;59017;49.252;18.838;2022-09-09T13:28:56;23.92;43.51
66596;SHT31;59017;49.252;18.838;2022-09-09T13:31:36;23.91;44.27
66596;SHT31;59017;49.252;18.838;2022-09-09T13:34:29;23.89;43.31
66596;SHT31;59017;49.252;18.838;2022-09-09T13:37:03;23.89;44.03
66596;SHT31;59017;49.252;18.838;2022-09-09T13:39:32;23.91;44.22
66596;SHT31;59017;49.252;18.838;2022-09-09T13:41:58;23.88;44.34
66596;SHT31;59017;49.252;18.838;2022-09-09T13:44:31;23.89;44.25
66596;SHT31;59017;49.252;18.838;2022-09-09T13:47:49;23.92;43.70
66596;SHT31;59017;49.252;18.838;2022-09-09T13:49:49;23.88;44.31
66596;SHT31;59017;49.252;18.838;2022-09-09T13:52:17;23.88;43.88
66596;SHT31;59017;49.252;18.838;2022-09-09T13:54:50;23.91;44.23
66596;SHT31;59017;49.252;18.838;2022-09-09T13:57:17;23.92;44.50
66596;SHT31;59017;49.252;18.838;2022-09-09T13:59:44;23.91;44.09
66596;SHT31;59017;49.252;18.838;2022-09-09T14:02:10;23.86;43.84
66596;SHT31;59017;49.252;18.838;2022-09-09T14:04:35;23.84;43.64
66596;SHT31;59017;49.252;18.838;2022-09-09T14:07:02;23.86;43.56
66596;SHT31;59017;49.252;18.838;2022-09-09T14:09:28;23.85;43.59
66596;SHT31;59017;49.252;18.838;2022-09-09T14:11:53;23.88;43.85
66596;SHT31;59017;49.252;18.838;2022-09-09T14:14:20;23.89;44.20
66596;SHT31;59017;49.252;18.838;2022-09-09T14:16:46;23.94;44.07
66596;SHT31;59017;49.252;18.838;2022-09-09T14:19:12;23.98;44.53
66596;SHT31;59017;49.252;18.838;2022-09-09T14:21:37;23.97;43.75
66596;SHT31;59017;49.252;18.838;2022-09-09T14:24:03;23.98;44.78
66596;SHT31;59017;49.252;18.838;2022-09-09T14:26:28;24.00;43.38
66596;SHT31;59017;49.252;18.838;2022-09-09T14:28:55;23.97;43.60
66596;SHT31;59017;49.252;18.838;2022-09-09T14:31:20;23.94;43.33
66596;SHT31;59017;49.252;18.838;2022-09-09T14:33:46;23.97;42.52
66596;SHT31;59017;49.252;18.838;2022-09-09T14:36:11;23.92;42.77
66596;SHT31;59017;49.252;18.838;2022-09-09T14:38:38;23.92;42.85
66596;SHT31;59017;49.252;18.838;2022-09-09T14:41:05;23.95;42.48
66596;SHT31;59017;49.252;18.838;2022-09-09T14:43:31;23.94;43.24
66596;SHT31;59017;49.252;18.838;2022-09-09T14:46:04;23.89;43.17
66596;SHT31;59017;49.252;18.838;2022-09-09T14:48:31;23.92;42.67
66596;SHT31;59017;49.252;18.838;2022-09-09T14:50:56;23.88;42.96
66596;SHT31;59017;49.252;18.838;2022-09-09T14:53:22;23.88;43.00
66596;SHT31;59017;49.252;18.838;2022-09-09T14:55:47;23.89;43.29
66596;SHT31;59017;49.252;18.838;2022-09-09T14:58:13;23.86;42.97
66596;SHT31;59017;49.252;18.838;2022-09-09T15:00:39;23.88;43.27
66596;SHT31;59017;49.252;18.838;2022-09-09T15:03:04;23.89;42.66
66596;SHT31;59017;49.252;18.838;2022-09-09T15:05:30;23.85;43.00
66596;SHT31;59017;49.252;18.838;2022-09-09T15:07:57;23.88;42.83
66596;SHT31;59017;49.252;18.838;2022-09-09T15:10:24;23.86;43.05
66596;SHT31;59017;49.252;18.838;2022-09-09T15:12:49;23.85;43.26
66596;SHT31;59017;49.252;18.838;2022-09-09T15:15:15;23.85;43.40
66596;SHT31;59017;49.252;18.838;2022-09-09T15:17:40;23.85;43.34
66596;SHT31;59017;49.252;18.838;2022-09-09T15:20:06;23.84;43.38
66596;SHT31;59017;49.252;18.838;2022-09-09T15:22:33;23.85;43.25
66596;SHT31;59017;49.252;18.838;2022-09-09T15:24:59;23.82;43.52
66596;SHT31;59017;49.252;18.838;2022-09-09T15:27:25;23.82;43.39
66596;SHT31;59017;49.252;18.838;2022-09-09T15:29:50;23.85;43.32
66596;SHT31;59017;49.252;18.838;2022-09-09T15:32:17;23.78;43.82
66596;SHT31;59017;49.252;18.838;2022-09-09T15:34:43;23.86;43.34
66596;SHT31;59017;49.252;18.838;2022-09-09T15:37:12;23.81;42.86
66596;SHT31;59017;49.252;18.838;2022-09-09T15:39:39;23.79;43.19
66596;SHT31;59017;49.252;18.838;2022-09-09T15:42:06;23.78;43.17
66596;SHT31;59017;49.252;18.838;2022-09-09T15:44:42;23.82;42.97
66596;SHT31;59017;49.252;18.838;2022-09-09T15:47:10;23.77;43.18
66596;SHT31;59017;49.252;18.838;2022-09-09T15:49:37;23.79;43.42
66596;SHT31;59017;49.252;18.838;2022-09-09T15:52:03;23.78;43.73
66596;SHT31;59017;49.252;18.838;2022-09-09T15:54:34;23.81;43.77
66596;SHT31;59017;49.252;18.838;2022-09-09T15:57:03;23.74;44.00
66596;SHT31;59017;49.252;18.838;2022-09-09T15:59:31;23.74;44.17
66596;SHT31;59017;49.252;18.838;2022-09-09T16:01:57;23.74;44.29
66596;SHT31;59017;49.252;18.838;2022-09-09T16:04:25;23.74;44.34
66596;SHT31;59017;49.252;18.838;2022-09-09T16:06:56;23.71;44.66
66596;SHT31;59017;49.252;18.838;2022-09-09T16:09:24;23.71;44.84
66596;SHT31;59017;49.252;18.838;2022-09-09T16:11:50;23.65;45.19
66596;SHT31;59017;49.252;18.838;2022-09-09T16:14:17;23.65;45.32
66596;SHT31;59017;49.252;18.838;2022-09-09T16:16:42;23.67;45.41
66596;SHT31;59017;49.252;18.838;2022-09-09T16:19:10;23.63;45.63
66596;SHT31;59017;49.252;18.838;2022-09-09T16:21:48;23.61;45.93
66596;SHT31;59017;49.252;18.838;2022-09-09T16:24:16;23.65;45.82
66596;SHT31;59017;49.252;18.838;2022-09-09T16:26:48;23.54;46.15
66596;SHT31;59017;49.252;18.838;2022-09-09T16:29:16;23.61;46.16
66596;SHT31;59017;49.252;18.838;2022-09-09T16:31:43;23.58;46.46
66596;SHT31;59017;49.252;18.838;2022-09-09T16:34:09;23.58;46.62
66596;SHT31;59017;49.252;18.838;2022-09-09T16:36:36;23.61;46.66
66596;SHT31;59017;49.252;18.838;2022-09-09T16:39:05;23.61;46.68
66596;SHT31;59017;49.252;18.838;2022-09-09T16:41:31;23.63;46.72
66596;SHT31;59017;49.252;18.838;2022-09-09T16:43:59;23.57;46.88
66596;SHT31;59017;49.252;18.838;2022-09-09T16:46:26;23.58;46.89
66596;SHT31;59017;49.252;18.838;2022-09-09T16:48:53;23.57;47.02
66596;SHT31;59017;49.252;18.838;2022-09-09T16:51:27;23.58;47.04
66596;SHT31;59017;49.252;18.838;2022-09-09T16:53:53;23.58;46.98
66596;SHT31;59017;49.252;18.838;2022-09-09T16:56:22;23.63;46.98
66596;SHT31;59017;49.252;18.838;2022-09-09T16:58:57;23.67;47.07
66596;SHT31;59017;49.252;18.838;2022-09-09T17:01:24;23.70;47.04
66596;SHT31;59017;49.252;18.838;2022-09-09T17:03:54;23.68;47.11
66596;SHT31;59017;49.252;18.838;2022-09-09T17:06:20;23.70;47.22
66596;SHT31;59017;49.252;18.838;2022-09-09T17:08:46;23.68;47.23
66596;SHT31;59017;49.252;18.838;2022-09-09T17:11:18;23.70;47.27
66596;SHT31;59017;49.252;18.838;2022-09-09T17:13:45;23.67;47.49
66596;SHT31;59017;49.252;18.838;2022-09-09T17:16:12;23.68;47.55
66596;SHT31;59017;49.252;18.838;2022-09-09T17:18:38;23.70;47.59
66596;SHT31;59017;49.252;18.838;2022-09-09T17:21:11;23.67;47.68
66596;SHT31;59017;49.252;18.838;2022-09-09T17:23:38;23.63;47.76
66596;SHT31;59017;49.252;18.838;2022-09-09T17:26:09;23.64;47.76
66596;SHT31;59017;49.252;18.838;2022-09-09T17:28:40;23.65;47.76
66596;SHT31;59017;49.252;18.838;2022-09-09T17:31:07;23.63;47.94
66596;SHT31;59017;49.252;18.838;2022-09-09T17:33:35;23.63;47.99
66596;SHT31;59017;49.252;18.838;2022-09-09T17:36:05;23.64;47.99
66596;SHT31;59017;49.252;18.838;2022-09-09T17:38:32;23.65;47.82
66596;SHT31;59017;49.252;18.838;2022-09-09T17:41:10;23.63;47.86
66596;SHT31;59017;49.252;18.838;2022-09-09T17:43:36;23.51;48.08
66596;SHT31;59017;49.252;18.838;2022-09-09T17:46:07;23.51;48.16
66596;SHT31;59017;49.252;18.838;2022-09-09T17:48:33;23.57;48.10
66596;SHT31;59017;49.252;18.838;2022-09-09T17:51:00;23.51;48.22
66596;SHT31;59017;49.252;18.838;2022-09-09T17:53:25;23.55;48.13
66596;SHT31;59017;49.252;18.838;2022-09-09T17:55:51;23.54;48.25
66596;SHT31;59017;49.252;18.838;2022-09-09T17:58:17;23.53;48.36